createdAt,value
2018-07-24T00:00:09.673Z,22.13
2018-07-24T00:02:38.458Z,21.83
2018-07-24T00:05:07.464Z,21.91
2018-07-24T00:07:36.449Z,21.96
2018-07-24T00:10:05.572Z,21.94
2018-07-24T00:12:34.669Z,21.78
2018-07-24T00:15:04.310Z,21.69
2018-07-24T00:17:33.010Z,21.67
2018-07-24T00:20:01.774Z,21.52
2018-07-24T00:22:30.816Z,21.49
2018-07-24T00:24:59.553Z,21.43
2018-07-24T00:27:28.315Z,21.48
2018-07-24T00:29:57.104Z,21.45
2018-07-24T00:32:26.076Z,21.33
2018-07-24T00:34:54.805Z,21.28
2018-07-24T00:37:23.546Z,21.22
2018-07-24T00:39:52.808Z,21.13
2018-07-24T00:42:21.555Z,21.11
2018-07-24T00:44:50.238Z,21.00
2018-07-24T00:47:19.030Z,21.08
2018-07-24T00:49:47.946Z,21.13
2018-07-24T00:52:16.692Z,21.11
2018-07-24T00:54:45.462Z,21.07
2018-07-24T00:57:14.153Z,20.93
2018-07-24T00:59:42.933Z,20.81
2018-07-24T01:02:11.844Z,20.88
2018-07-24T01:04:40.572Z,20.79
2018-07-24T01:07:09.297Z,20.72
2018-07-24T01:09:38.056Z,20.71
2018-07-24T01:12:06.776Z,20.47
2018-07-24T01:14:35.519Z,20.26
2018-07-24T01:17:04.328Z,20.31
2018-07-24T01:19:33.152Z,20.33
2018-07-24T01:22:01.892Z,20.27
2018-07-24T01:24:30.608Z,20.30
2018-07-24T01:26:59.367Z,20.34
2018-07-24T01:29:28.139Z,20.57
2018-07-24T01:31:56.872Z,20.60
2018-07-24T01:34:25.800Z,20.57
2018-07-24T01:36:54.656Z,20.46
2018-07-24T01:39:23.393Z,20.44
2018-07-24T01:41:52.553Z,20.30
2018-07-24T01:44:21.296Z,20.18
2018-07-24T01:46:50.208Z,20.12
2018-07-24T01:49:18.973Z,20.18
2018-07-24T01:51:47.862Z,20.20
2018-07-24T01:54:16.571Z,20.28
2018-07-24T01:56:45.261Z,20.30
2018-07-24T01:59:14.123Z,20.29
2018-07-24T02:01:43.479Z,20.31
2018-07-24T02:04:12.417Z,20.33
2018-07-24T02:06:41.179Z,20.32
2018-07-24T02:09:10.734Z,20.32
2018-07-24T02:11:39.657Z,20.17
2018-07-24T02:14:08.636Z,20.07
2018-07-24T02:16:37.411Z,19.98
2018-07-24T02:19:06.238Z,19.97
2018-07-24T02:21:34.998Z,19.96
2018-07-24T02:24:04.112Z,20.01
2018-07-24T02:26:32.785Z,19.97
2018-07-24T02:29:01.522Z,19.80
2018-07-24T02:31:30.263Z,19.65
2018-07-24T02:33:58.941Z,19.65
2018-07-24T02:36:27.783Z,19.81
2018-07-24T02:38:57.237Z,19.84
2018-07-24T02:41:25.959Z,19.74
2018-07-24T02:43:54.728Z,19.74
2018-07-24T02:46:23.518Z,19.84
2018-07-24T02:48:52.365Z,19.81
2018-07-24T02:51:21.111Z,19.69
2018-07-24T02:53:49.819Z,19.83
2018-07-24T02:56:18.587Z,19.69
2018-07-24T02:58:47.396Z,19.71
2018-07-24T03:01:16.156Z,19.65
2018-07-24T03:03:44.863Z,19.62
2018-07-24T03:06:13.619Z,19.55
2018-07-24T03:08:42.388Z,19.54
2018-07-24T03:11:11.161Z,19.65
2018-07-24T03:13:39.917Z,19.74
2018-07-24T03:16:08.650Z,19.80
2018-07-24T03:18:37.345Z,19.82
2018-07-24T03:21:06.377Z,19.82
2018-07-24T03:23:35.088Z,19.91
2018-07-24T03:26:03.887Z,19.77
2018-07-24T03:28:32.618Z,19.74
2018-07-24T03:31:01.339Z,19.79
2018-07-24T03:33:30.030Z,19.82
2018-07-24T03:35:58.891Z,19.87
2018-07-24T03:38:27.613Z,19.83
2018-07-24T03:40:56.359Z,19.85
2018-07-24T03:43:25.086Z,19.89
2018-07-24T03:45:53.845Z,19.95
2018-07-24T03:48:22.619Z,20.07
2018-07-24T03:50:51.338Z,20.04
2018-07-24T03:53:20.134Z,19.96
2018-07-24T03:55:48.886Z,19.99
2018-07-24T03:58:17.872Z,19.88
2018-07-24T04:00:46.669Z,19.90
2018-07-24T04:03:15.437Z,19.85
2018-07-24T04:05:44.146Z,19.82
2018-07-24T04:08:12.858Z,19.84
2018-07-24T04:10:41.598Z,19.92
2018-07-24T04:13:10.412Z,20.00
2018-07-24T04:15:39.293Z,20.02
2018-07-24T04:18:08.044Z,19.91
2018-07-24T04:20:36.830Z,20.05
2018-07-24T04:23:05.561Z,19.94
2018-07-24T04:25:34.372Z,19.97
2018-07-24T04:28:03.101Z,20.11
2018-07-24T04:30:31.945Z,20.13
2018-07-24T04:33:00.631Z,20.25
2018-07-24T04:35:29.361Z,20.40
2018-07-24T04:37:58.133Z,20.51
2018-07-24T04:40:26.949Z,20.57
2018-07-24T04:42:55.707Z,20.64
2018-07-24T04:45:24.413Z,20.64
2018-07-24T04:47:53.152Z,20.75
2018-07-24T04:50:21.872Z,20.81
2018-07-24T04:52:50.646Z,20.89
2018-07-24T04:55:19.369Z,21.00
2018-07-24T04:57:48.120Z,21.03
2018-07-24T05:00:16.908Z,21.10
2018-07-24T05:02:45.595Z,21.08
2018-07-24T05:05:14.281Z,21.13
2018-07-24T05:07:43.002Z,21.16
2018-07-24T05:10:11.743Z,21.20
2018-07-24T05:12:40.434Z,21.31
2018-07-24T05:15:09.271Z,21.38
2018-07-24T05:17:37.997Z,21.47
2018-07-24T05:20:06.734Z,21.55
2018-07-24T05:22:35.505Z,21.76
2018-07-24T05:25:04.224Z,21.74
2018-07-24T05:27:33.145Z,21.83
2018-07-24T05:30:01.933Z,21.92
2018-07-24T05:32:30.649Z,21.98
2018-07-24T05:34:59.326Z,22.16
2018-07-24T05:37:28.089Z,22.39
2018-07-24T05:39:56.832Z,22.55
2018-07-24T05:42:25.568Z,22.66
2018-07-24T05:44:54.265Z,22.70
2018-07-24T05:47:23.116Z,22.68
2018-07-24T05:49:51.847Z,22.80
2018-07-24T05:52:20.616Z,23.03
2018-07-24T05:54:49.357Z,23.06
2018-07-24T05:57:18.020Z,23.12
2018-07-24T05:59:46.797Z,23.27
2018-07-24T06:02:15.538Z,23.37
2018-07-24T06:04:45.086Z,23.45
2018-07-24T06:07:13.898Z,23.53
2018-07-24T06:09:42.639Z,23.62
2018-07-24T06:12:11.732Z,23.75
2018-07-24T06:14:40.415Z,23.88
2018-07-24T06:17:09.161Z,23.83
2018-07-24T06:19:37.897Z,23.81
2018-07-24T06:22:06.733Z,23.81
2018-07-24T06:24:35.477Z,23.82
2018-07-24T06:27:04.196Z,23.90
2018-07-24T06:29:32.911Z,24.04
2018-07-24T06:32:01.729Z,24.19
2018-07-24T06:34:30.419Z,24.18
2018-07-24T06:37:00.021Z,24.23
2018-07-24T06:39:28.755Z,24.16
2018-07-24T06:41:57.488Z,24.24
2018-07-24T06:44:26.288Z,24.35
2018-07-24T06:46:55.009Z,24.44
2018-07-24T06:49:23.818Z,24.48
2018-07-24T06:51:52.685Z,24.62
2018-07-24T06:54:21.385Z,24.75
2018-07-24T06:56:50.115Z,24.82
2018-07-24T06:59:18.847Z,25.12
2018-07-24T07:01:47.592Z,25.47
2018-07-24T07:04:16.379Z,25.94
2018-07-24T07:06:45.110Z,26.27
2018-07-24T07:09:13.856Z,26.45
2018-07-24T07:11:42.643Z,26.01
2018-07-24T07:14:11.490Z,26.16
2018-07-24T07:16:40.292Z,26.35
2018-07-24T07:19:09.024Z,26.45
2018-07-24T07:21:37.763Z,26.49
2018-07-24T07:24:06.462Z,26.32
2018-07-24T07:26:35.189Z,26.41
2018-07-24T07:29:03.997Z,26.60
2018-07-24T07:31:32.608Z,26.68
2018-07-24T07:34:01.324Z,26.60
2018-07-24T07:36:30.180Z,26.71
2018-07-24T07:38:58.970Z,26.51
2018-07-24T07:41:27.666Z,26.49
2018-07-24T07:43:56.508Z,26.57
2018-07-24T07:46:25.200Z,26.64
2018-07-24T07:48:53.863Z,26.80
2018-07-24T07:51:22.627Z,27.08
2018-07-24T07:53:51.493Z,26.97
2018-07-24T07:56:20.226Z,27.19
2018-07-24T07:58:49.175Z,27.35
2018-07-24T08:01:17.822Z,27.76
2018-07-24T08:03:46.879Z,27.90
2018-07-24T08:06:15.772Z,28.14
2018-07-24T08:08:44.557Z,28.31
2018-07-24T08:11:13.325Z,28.03
2018-07-24T08:13:42.077Z,27.79
2018-07-24T08:16:10.802Z,28.20
2018-07-24T08:18:39.713Z,28.38
2018-07-24T08:21:08.428Z,28.54
2018-07-24T08:23:37.185Z,28.60
2018-07-24T08:26:06.176Z,28.45
2018-07-24T08:28:34.922Z,28.80
2018-07-24T08:31:03.717Z,29.26
2018-07-24T08:33:32.570Z,29.47
2018-07-24T08:36:01.248Z,29.42
2018-07-24T08:38:30.282Z,29.90
2018-07-24T08:40:59.313Z,30.13
2018-07-24T08:43:28.105Z,30.66
2018-07-24T08:45:57.158Z,31.22
2018-07-24T08:48:26.435Z,30.87
2018-07-24T08:50:55.253Z,30.54
2018-07-24T08:53:24.290Z,31.04
2018-07-24T08:55:52.961Z,30.16
2018-07-24T08:58:21.954Z,30.50
2018-07-24T09:00:50.928Z,30.57
2018-07-24T09:03:19.717Z,31.16
2018-07-24T09:05:49.066Z,31.25
2018-07-24T09:08:18.204Z,31.57
2018-07-24T09:10:46.977Z,31.74
2018-07-24T09:13:17.474Z,32.15
2018-07-24T09:15:46.477Z,31.82
2018-07-24T09:18:15.304Z,31.94
2018-07-24T09:20:44.083Z,31.42
2018-07-24T09:23:12.880Z,31.48
2018-07-24T09:25:41.699Z,31.42
2018-07-24T09:28:10.411Z,31.30
2018-07-24T09:30:39.133Z,31.63
2018-07-24T09:33:07.814Z,31.44
2018-07-24T09:35:36.525Z,31.51
2018-07-24T09:38:05.435Z,31.08
2018-07-24T09:40:34.211Z,31.35
2018-07-24T09:43:02.923Z,31.59
2018-07-24T09:45:33.126Z,31.64
2018-07-24T09:48:02.021Z,31.29
2018-07-24T09:50:30.874Z,31.81
2018-07-24T09:52:59.589Z,32.47
2018-07-24T09:55:28.467Z,31.88
2018-07-24T09:57:57.133Z,32.45
2018-07-24T10:00:31.258Z,32.43
2018-07-24T10:03:00.038Z,32.37
2018-07-24T10:05:29.113Z,32.49
2018-07-24T10:07:57.952Z,32.37
2018-07-24T10:10:26.773Z,32.25
2018-07-24T10:12:58.179Z,32.86
2018-07-24T10:15:26.776Z,32.77
2018-07-24T10:17:55.509Z,32.91
2018-07-24T10:20:24.253Z,32.54
2018-07-24T10:22:53.018Z,32.33
2018-07-24T10:25:21.793Z,32.96
2018-07-24T10:27:50.758Z,33.02
2018-07-24T10:30:19.491Z,33.30
2018-07-24T10:32:48.215Z,33.19
2018-07-24T10:35:16.979Z,33.17
2018-07-24T10:37:45.741Z,33.49
2018-07-24T10:40:14.497Z,33.67
2018-07-24T10:42:43.225Z,33.85
2018-07-24T10:45:12.094Z,33.67
2018-07-24T10:47:40.879Z,33.87
2018-07-24T10:50:09.634Z,33.72
2018-07-24T10:52:38.437Z,33.20
2018-07-24T10:55:07.311Z,33.76
2018-07-24T10:57:36.050Z,33.50
2018-07-24T11:00:05.276Z,34.32
2018-07-24T11:02:34.185Z,34.04
2018-07-24T11:05:02.932Z,34.08
2018-07-24T11:07:31.698Z,33.48
2018-07-24T11:10:00.507Z,33.83
2018-07-24T11:12:29.392Z,33.94
2018-07-24T11:14:58.244Z,33.79
2018-07-24T11:17:27.757Z,33.38
2018-07-24T11:19:56.807Z,33.47
2018-07-24T11:22:25.651Z,33.49
2018-07-24T11:24:54.344Z,33.61
2018-07-24T11:27:23.131Z,33.72
2018-07-24T11:29:51.813Z,33.42
2018-07-24T11:32:20.544Z,33.34
2018-07-24T11:34:49.226Z,33.23
2018-07-24T11:37:17.963Z,33.56
2018-07-24T11:39:46.656Z,33.19
2018-07-24T11:42:15.421Z,33.29
2018-07-24T11:44:44.107Z,33.34
2018-07-24T11:47:12.794Z,33.17
2018-07-24T11:49:41.518Z,33.35
2018-07-24T11:52:10.269Z,33.58
2018-07-24T11:54:39.052Z,33.23
2018-07-24T11:57:07.815Z,33.40
2018-07-24T11:59:36.620Z,32.89
2018-07-24T12:02:05.615Z,33.25
2018-07-24T12:04:34.484Z,32.99
2018-07-24T12:07:03.296Z,32.89
2018-07-24T12:09:32.008Z,33.02
2018-07-24T12:12:00.687Z,33.48
2018-07-24T12:14:29.461Z,33.21
2018-07-24T12:16:58.130Z,33.14
2018-07-24T12:19:26.847Z,33.62
2018-07-24T12:21:55.662Z,33.41
2018-07-24T12:24:24.451Z,33.38
2018-07-24T12:26:53.263Z,33.32
2018-07-24T12:29:22.005Z,33.50
2018-07-24T12:31:50.808Z,33.48
2018-07-24T12:34:19.622Z,33.47
2018-07-24T12:36:48.440Z,33.36
2018-07-24T12:39:17.208Z,33.22
2018-07-24T12:41:45.960Z,33.15
2018-07-24T12:44:14.683Z,33.19
2018-07-24T12:46:43.341Z,32.84
2018-07-24T12:49:12.153Z,33.20
2018-07-24T12:51:41.067Z,33.56
2018-07-24T12:54:09.889Z,33.30
2018-07-24T12:56:38.603Z,33.17
2018-07-24T12:59:07.261Z,32.68
2018-07-24T13:01:36.137Z,32.77
2018-07-24T13:04:05.012Z,32.79
2018-07-24T13:06:33.706Z,33.23
2018-07-24T13:09:02.464Z,32.92
2018-07-24T13:11:31.189Z,32.86
2018-07-24T13:14:00.705Z,32.87
2018-07-24T13:16:29.513Z,33.00
2018-07-24T13:18:58.263Z,32.29
2018-07-24T13:21:27.022Z,32.40
2018-07-24T13:23:55.724Z,32.33
2018-07-24T13:26:24.556Z,32.49
2018-07-24T13:28:53.322Z,32.71
2018-07-24T13:31:22.064Z,32.81
2018-07-24T13:33:50.916Z,33.03
2018-07-24T13:36:19.608Z,32.71
2018-07-24T13:38:48.468Z,32.76
2018-07-24T13:41:18.457Z,32.83
2018-07-24T13:43:47.261Z,32.89
2018-07-24T13:46:16.046Z,32.83
2018-07-24T13:48:44.777Z,32.79
2018-07-24T13:51:13.666Z,32.79
2018-07-24T13:53:42.511Z,33.21
2018-07-24T13:56:11.434Z,33.28
2018-07-24T13:58:40.159Z,33.02
2018-07-24T14:01:08.871Z,33.16
2018-07-24T14:03:37.614Z,32.67
2018-07-24T14:06:06.422Z,32.60
2018-07-24T14:08:35.133Z,32.48
2018-07-24T14:11:03.817Z,32.61
2018-07-24T14:13:32.519Z,32.25
2018-07-24T14:16:01.208Z,32.41
2018-07-24T14:18:30.089Z,32.44
2018-07-24T14:20:58.897Z,32.46
2018-07-24T14:23:28.042Z,32.16
2018-07-24T14:25:56.855Z,32.02
2018-07-24T14:28:25.656Z,32.03
2018-07-24T14:30:54.447Z,31.80
2018-07-24T14:33:23.235Z,31.75
2018-07-24T14:35:52.015Z,31.74
2018-07-24T14:38:20.795Z,31.29
2018-07-24T14:40:50.237Z,31.29
2018-07-24T14:43:19.108Z,31.43
2018-07-24T14:45:47.945Z,31.34
2018-07-24T14:48:16.958Z,31.46
2018-07-24T14:50:45.780Z,31.45
2018-07-24T14:53:14.678Z,31.39
2018-07-24T14:55:43.374Z,31.45
2018-07-24T14:58:12.161Z,31.22
2018-07-24T15:00:40.957Z,31.18
2018-07-24T15:03:10.091Z,31.02
2018-07-24T15:05:39.056Z,31.36
2018-07-24T15:08:07.948Z,31.52
2018-07-24T15:10:36.887Z,31.37
2018-07-24T15:13:05.757Z,31.51
2018-07-24T15:15:34.569Z,30.96
2018-07-24T15:18:03.314Z,31.21
2018-07-24T15:20:32.036Z,31.16
2018-07-24T15:23:01.080Z,30.86
2018-07-24T15:25:29.749Z,31.15
2018-07-24T15:27:58.832Z,31.08
2018-07-24T15:30:28.217Z,30.99
2018-07-24T15:32:56.984Z,30.72
2018-07-24T15:35:25.797Z,30.77
2018-07-24T15:37:54.767Z,30.60
2018-07-24T15:40:23.890Z,30.36
2018-07-24T15:42:52.752Z,30.38
2018-07-24T15:45:21.508Z,30.46
2018-07-24T15:47:50.224Z,30.40
2018-07-24T15:50:19.022Z,30.27
2018-07-24T15:52:47.925Z,30.31
2018-07-24T15:55:16.780Z,30.33
2018-07-24T15:57:45.649Z,30.27
2018-07-24T16:00:14.401Z,30.30
2018-07-24T16:02:43.182Z,30.05
2018-07-24T16:05:12.025Z,30.11
2018-07-24T16:07:40.864Z,30.08
2018-07-24T16:10:10.152Z,30.17
2018-07-24T16:12:38.906Z,30.19
2018-07-24T16:15:07.643Z,30.22
2018-07-24T16:17:36.400Z,30.01
2018-07-24T16:20:05.308Z,29.97
2018-07-24T16:22:34.014Z,30.11
2018-07-24T16:25:02.962Z,30.02
2018-07-24T16:27:31.824Z,30.00
2018-07-24T16:30:01.286Z,29.98
2018-07-24T16:32:30.053Z,29.92
2018-07-24T16:34:58.765Z,29.81
2018-07-24T16:37:27.432Z,29.89
2018-07-24T16:39:56.185Z,30.00
2018-07-24T16:42:25.167Z,30.00
2018-07-24T16:44:53.949Z,29.71
2018-07-24T16:47:22.732Z,29.50
2018-07-24T16:49:51.463Z,29.57
2018-07-24T16:52:20.284Z,29.49
2018-07-24T16:54:49.271Z,29.61
2018-07-24T16:57:18.079Z,29.48
2018-07-24T16:59:46.922Z,29.45
2018-07-24T17:02:15.621Z,29.46
2018-07-24T17:04:44.348Z,29.58
2018-07-24T17:07:13.085Z,29.70
2018-07-24T17:09:41.831Z,29.62
2018-07-24T17:12:10.761Z,29.50
2018-07-24T17:14:39.505Z,29.37
2018-07-24T17:17:08.267Z,29.34
2018-07-24T17:19:37.051Z,29.22
2018-07-24T17:22:05.857Z,29.09
2018-07-24T17:24:34.606Z,29.23
2018-07-24T17:27:03.290Z,29.29
2018-07-24T17:29:32.033Z,29.43
2018-07-24T17:32:00.926Z,29.32
2018-07-24T17:34:29.691Z,29.27
2018-07-24T17:36:58.768Z,29.21
2018-07-24T17:39:27.559Z,29.37
2018-07-24T17:41:56.325Z,29.16
2018-07-24T17:44:25.125Z,29.20
2018-07-24T17:46:53.917Z,29.04
2018-07-24T17:49:22.722Z,29.06
2018-07-24T17:51:51.375Z,28.99
2018-07-24T17:54:20.127Z,28.93
2018-07-24T17:56:48.848Z,29.11
2018-07-24T17:59:17.587Z,28.97
2018-07-24T18:01:46.374Z,28.94
2018-07-24T18:04:15.133Z,28.93
2018-07-24T18:06:43.838Z,28.90
2018-07-24T18:09:13.497Z,29.13
2018-07-24T18:11:42.294Z,29.03
2018-07-24T18:14:11.110Z,29.04
2018-07-24T18:16:40.056Z,28.93
2018-07-24T18:19:08.943Z,29.12
2018-07-24T18:21:37.811Z,29.18
2018-07-24T18:24:06.673Z,29.12
2018-07-24T18:26:35.380Z,28.97
2018-07-24T18:29:04.281Z,28.77
2018-07-24T18:31:33.061Z,28.72
2018-07-24T18:34:01.961Z,28.75
2018-07-24T18:36:30.788Z,28.93
2018-07-24T18:38:59.485Z,28.86
2018-07-24T18:41:28.222Z,28.92
2018-07-24T18:43:56.916Z,28.98
2018-07-24T18:46:25.731Z,28.91
2018-07-24T18:48:54.450Z,28.70
2018-07-24T18:51:23.206Z,28.73
2018-07-24T18:53:51.888Z,28.69
2018-07-24T18:56:20.618Z,28.63
2018-07-24T18:58:49.487Z,28.60
2018-07-24T19:01:20.281Z,28.45
2018-07-24T19:03:49.016Z,28.15
2018-07-24T19:06:17.946Z,28.24
2018-07-24T19:08:46.810Z,28.31
2018-07-24T19:11:16.219Z,28.28
2018-07-24T19:13:44.840Z,28.21
2018-07-24T19:16:13.645Z,28.18
2018-07-24T19:18:42.524Z,28.05
2018-07-24T19:21:11.246Z,27.58
2018-07-24T19:23:40.192Z,27.78
2018-07-24T19:26:08.962Z,27.81
2018-07-24T19:28:37.764Z,27.79
2018-07-24T19:31:06.675Z,27.70
2018-07-24T19:33:35.340Z,27.71
2018-07-24T19:36:04.104Z,27.53
2018-07-24T19:38:32.846Z,27.55
2018-07-24T19:41:01.642Z,27.50
2018-07-24T19:43:30.636Z,27.47
2018-07-24T19:45:59.348Z,27.45
2018-07-24T19:48:28.185Z,27.34
2018-07-24T19:50:56.889Z,27.37
2018-07-24T19:53:25.675Z,27.23
2018-07-24T19:55:54.405Z,27.23
2018-07-24T19:58:23.128Z,27.13
2018-07-24T20:00:51.859Z,27.14
2018-07-24T20:03:20.621Z,27.09
2018-07-24T20:05:49.325Z,27.06
2018-07-24T20:08:18.227Z,27.06
2018-07-24T20:10:46.956Z,26.94
2018-07-24T20:13:15.722Z,26.78
2018-07-24T20:15:44.440Z,26.69
2018-07-24T20:18:13.158Z,26.66
2018-07-24T20:20:41.919Z,26.70
2018-07-24T20:23:11.118Z,26.57
2018-07-24T20:25:39.896Z,26.50
2018-07-24T20:28:08.608Z,26.43
2018-07-24T20:30:37.333Z,26.36
2018-07-24T20:33:06.108Z,26.36
2018-07-24T20:35:35.111Z,26.35
2018-07-24T20:38:03.936Z,26.19
2018-07-24T20:40:32.735Z,26.16
2018-07-24T20:43:01.600Z,26.09
2018-07-24T20:45:31.155Z,26.06
2018-07-24T20:48:00.038Z,26.07
2018-07-24T20:50:28.800Z,26.07
2018-07-24T20:52:57.568Z,25.98
2018-07-24T20:55:26.270Z,26.07
2018-07-24T20:57:55.871Z,25.92
2018-07-24T21:00:24.676Z,25.87
2018-07-24T21:02:53.399Z,25.84
2018-07-24T21:05:22.076Z,25.81
2018-07-24T21:07:50.814Z,25.71
2018-07-24T21:10:20.051Z,25.72
2018-07-24T21:12:49.706Z,25.58
2018-07-24T21:15:19.076Z,25.53
2018-07-24T21:17:47.927Z,25.53
2018-07-24T21:20:16.763Z,25.51
2018-07-24T21:22:45.539Z,25.54
2018-07-24T21:25:14.447Z,25.48
2018-07-24T21:27:43.201Z,25.45
2018-07-24T21:30:12.953Z,25.31
2018-07-24T21:32:41.718Z,25.37
2018-07-24T21:35:10.425Z,25.32
2018-07-24T21:37:39.711Z,25.22
2018-07-24T21:40:08.389Z,25.04
2018-07-24T21:42:37.325Z,25.15
2018-07-24T21:45:05.937Z,24.85
2018-07-24T21:47:34.768Z,25.08
2018-07-24T21:50:03.557Z,25.07
2018-07-24T21:52:32.395Z,25.14
2018-07-24T21:55:01.341Z,25.16
2018-07-24T21:57:30.076Z,25.14
2018-07-24T21:59:58.790Z,25.04
2018-07-24T22:02:27.573Z,24.99
2018-07-24T22:04:56.422Z,25.03
2018-07-24T22:07:25.467Z,24.97
2018-07-24T22:09:54.137Z,24.90
2018-07-24T22:12:23.394Z,25.13
2018-07-24T22:14:52.132Z,25.13
2018-07-24T22:17:20.832Z,25.04
2018-07-24T22:19:49.624Z,25.00
2018-07-24T22:22:18.878Z,25.09
2018-07-24T22:24:47.716Z,25.00
2018-07-24T22:27:16.579Z,24.82
2018-07-24T22:29:45.324Z,25.01
2018-07-24T22:32:14.214Z,24.92
2018-07-24T22:34:42.947Z,24.83
2018-07-24T22:37:11.808Z,24.80
2018-07-24T22:39:40.514Z,24.72
2018-07-24T22:42:09.232Z,24.85
2018-07-24T22:44:37.944Z,24.77
2018-07-24T22:47:06.678Z,24.60
2018-07-24T22:49:35.425Z,24.68
2018-07-24T22:52:04.415Z,24.43
2018-07-24T22:54:33.120Z,24.56
2018-07-24T22:57:01.814Z,24.43
2018-07-24T22:59:30.573Z,24.48
2018-07-24T23:01:59.311Z,24.70
2018-07-24T23:04:28.016Z,24.55
2018-07-24T23:06:56.804Z,24.59
2018-07-24T23:09:25.572Z,24.61
2018-07-24T23:11:54.315Z,24.45
2018-07-24T23:14:23.101Z,24.55
2018-07-24T23:16:51.921Z,24.54
2018-07-24T23:19:20.641Z,24.30
2018-07-24T23:21:49.681Z,24.21
2018-07-24T23:24:18.423Z,24.14
2018-07-24T23:26:47.105Z,23.69
2018-07-24T23:29:16.001Z,23.56
2018-07-24T23:31:44.736Z,23.44
2018-07-24T23:34:13.466Z,23.52
2018-07-24T23:36:42.228Z,23.68
2018-07-24T23:39:11.739Z,23.62
2018-07-24T23:41:40.536Z,23.90
2018-07-24T23:44:09.296Z,23.81
2018-07-24T23:46:38.369Z,23.61
2018-07-24T23:49:07.250Z,23.32
2018-07-24T23:51:36.022Z,22.93
2018-07-24T23:54:04.788Z,22.86
2018-07-24T23:56:33.536Z,22.84
2018-07-24T23:59:02.245Z,23.06
